Time;durP1;ratioP1;P1;durP2;ratioP2;P2;SDS_P1;SDS_P2;PMS_P1;PMS_P2;Temp;Humidity;BMP_temperature;BMP_pressure;BME280_temperature;BME280_humidity;BME280_pressure;Samples;Min_cycle;Max_cycle;Signal;HPM_P1;HPM_P2
2022/08/14 00:01:47;;;;;;;59.30;4.20;;;;;;;;;;5071296;28;20466;-65
2022/08/14 00:04:14;;;;;;;60.10;4.60;;;;;;;;;;5071383;28;20451;-65
2022/08/14 00:06:41;;;;;;;60.47;4.30;;;;;;;;;;5071345;28;20443;-66
2022/08/14 00:09:09;;;;;;;59.20;3.90;;;;;;;;;;5070736;28;20507;-66
2022/08/14 00:11:37;;;;;;;59.50;3.93;;;;;;;;;;5071104;28;20489;-66
2022/08/14 00:14:04;;;;;;;60.10;4.20;;;;;;;;;;5071275;28;20443;-66
2022/08/14 00:16:31;;;;;;;59.80;4.43;;;;;;;;;;5071064;28;20451;-66
2022/08/14 00:18:59;;;;;;;59.70;4.40;;;;;;;;;;5071444;28;20978;-66
2022/08/14 00:21:26;;;;;;;60.27;5.00;;;;;;;;;;5071810;28;20482;-66
2022/08/14 00:23:55;;;;;;;60.77;4.80;;;;;;;;;;5071792;28;20443;-66
2022/08/14 00:26:22;;;;;;;59.73;4.83;;;;;;;;;;5071046;28;20458;-66
2022/08/14 00:28:51;;;;;;;59.70;4.57;;;;;;;;;;5070581;28;20447;-66
2022/08/14 00:31:19;;;;;;;58.57;3.60;;;;;;;;;;5070933;28;20473;-66
2022/08/14 00:33:46;;;;;;;60.23;5.57;;;;;;;;;;5070760;28;20482;-66
2022/08/14 00:36:13;;;;;;;59.80;4.10;;;;;;;;;;5070632;28;20473;-66
2022/08/14 00:38:40;;;;;;;59.53;3.80;;;;;;;;;;5070600;28;20735;-66
2022/08/14 00:41:08;;;;;;;59.70;4.17;;;;;;;;;;5070857;28;20568;-66
2022/08/14 00:43:36;;;;;;;59.80;3.30;;;;;;;;;;5070822;28;20462;-66
2022/08/14 00:46:06;;;;;;;60.50;4.50;;;;;;;;;;5070622;28;20447;-66
2022/08/14 00:48:33;;;;;;;59.00;3.73;;;;;;;;;;5070945;28;20450;-66
2022/08/14 00:51:00;;;;;;;60.37;3.83;;;;;;;;;;5071289;28;20474;-66
2022/08/14 00:53:27;;;;;;;63.77;5.60;;;;;;;;;;5071583;28;20489;-66
2022/08/14 00:55:56;;;;;;;60.13;3.97;;;;;;;;;;5071831;28;20447;-66
2022/08/14 00:58:33;;;;;;;59.60;4.10;;;;;;;;;;5070929;28;20447;-66
2022/08/14 01:01:00;;;;;;;59.70;4.10;;;;;;;;;;5070558;28;20502;-66
2022/08/14 01:03:30;;;;;;;60.33;4.53;;;;;;;;;;5070899;28;20446;-66
2022/08/14 01:05:59;;;;;;;60.50;4.73;;;;;;;;;;5070917;28;20443;-66
2022/08/14 01:08:28;;;;;;;59.20;4.00;;;;;;;;;;5070785;28;20447;-66
2022/08/14 01:10:55;;;;;;;60.37;4.70;;;;;;;;;;5070220;28;20463;-66
2022/08/14 01:13:24;;;;;;;60.27;4.00;;;;;;;;;;5070746;28;21056;-66
2022/08/14 01:15:52;;;;;;;59.50;4.23;;;;;;;;;;5070156;28;20993;-66
2022/08/14 01:21:07;;;;;;;60.87;5.47;;;;;;;;;;5071307;28;20951;-66
2022/08/14 01:23:38;;;;;;;59.30;3.90;;;;;;;;;;5071267;28;20835;-66
2022/08/14 01:26:05;;;;;;;59.77;3.80;;;;;;;;;;5071227;28;20443;-66
2022/08/14 01:28:36;;;;;;;59.30;3.73;;;;;;;;;;5070458;28;20494;-66
2022/08/14 01:31:07;;;;;;;60.80;4.27;;;;;;;;;;5070459;28;20474;-66
2022/08/14 01:33:39;;;;;;;60.10;4.47;;;;;;;;;;5070110;28;20505;-66
2022/08/14 01:36:07;;;;;;;60.10;4.40;;;;;;;;;;5070196;28;20458;-66
2022/08/14 01:38:35;;;;;;;59.87;4.33;;;;;;;;;;5072604;28;20809;-66
2022/08/14 01:41:06;;;;;;;59.80;4.03;;;;;;;;;;5073617;28;20885;-66
2022/08/14 01:43:37;;;;;;;61.30;3.80;;;;;;;;;;5072261;28;20541;-66
2022/08/14 01:46:10;;;;;;;59.97;4.50;;;;;;;;;;5073819;28;20796;-66
2022/08/14 01:48:40;;;;;;;60.17;4.63;;;;;;;;;;5073608;28;20508;-66
2022/08/14 01:51:07;;;;;;;60.93;4.30;;;;;;;;;;5074551;28;20554;-66
2022/08/14 01:53:34;;;;;;;59.50;4.20;;;;;;;;;;5074364;28;20485;-66
2022/08/14 01:56:03;;;;;;;59.67;4.30;;;;;;;;;;5074535;28;20449;-66
2022/08/14 01:58:32;;;;;;;59.60;4.40;;;;;;;;;;5074049;28;20449;-66
2022/08/14 02:01:00;;;;;;;59.67;4.13;;;;;;;;;;5073452;28;20469;-66
2022/08/14 02:03:29;;;;;;;60.17;3.87;;;;;;;;;;5073541;28;20481;-66
2022/08/14 02:05:58;;;;;;;58.90;3.70;;;;;;;;;;5073415;28;20443;-66
2022/08/14 02:08:27;;;;;;;59.57;4.40;;;;;;;;;;5073338;28;20841;-66
2022/08/14 02:11:15;;;;;;;58.93;3.90;;;;;;;;;;5073022;28;20467;-66
2022/08/14 02:13:45;;;;;;;60.00;4.37;;;;;;;;;;5073140;28;20471;-66
2022/08/14 02:16:15;;;;;;;61.07;4.90;;;;;;;;;;5073392;28;20538;-66
2022/08/14 02:18:42;;;;;;;60.17;4.53;;;;;;;;;;5072971;28;20965;-66
2022/08/14 02:21:11;;;;;;;59.80;3.90;;;;;;;;;;5074049;28;20470;-66
2022/08/14 02:23:38;;;;;;;60.17;4.67;;;;;;;;;;5074041;28;20483;-66
2022/08/14 02:26:15;;;;;;;60.67;4.67;;;;;;;;;;5073890;28;20454;-66
2022/08/14 02:28:45;;;;;;;60.40;4.80;;;;;;;;;;5073619;28;20443;-66
2022/08/14 02:31:12;;;;;;;60.77;5.50;;;;;;;;;;5073137;28;20529;-66
2022/08/14 02:33:40;;;;;;;60.57;4.50;;;;;;;;;;5072975;28;20489;-67
2022/08/14 02:36:08;;;;;;;59.63;4.23;;;;;;;;;;5073027;28;20435;-67
2022/08/14 02:38:35;;;;;;;59.40;3.97;;;;;;;;;;5072451;28;20545;-67
2022/08/14 02:41:04;;;;;;;60.10;4.53;;;;;;;;;;5072803;28;20551;-67
2022/08/14 02:43:31;;;;;;;60.33;4.80;;;;;;;;;;5072662;28;20448;-67
2022/08/14 02:46:02;;;;;;;61.33;4.97;;;;;;;;;;5072759;28;20466;-67
2022/08/14 02:48:32;;;;;;;61.27;5.37;;;;;;;;;;5072164;28;20547;-67
2022/08/14 02:50:59;;;;;;;60.87;5.10;;;;;;;;;;5072927;28;20471;-67
2022/08/14 02:53:26;;;;;;;59.57;4.07;;;;;;;;;;5073276;28;20493;-67
2022/08/14 02:55:55;;;;;;;59.80;4.70;;;;;;;;;;5073304;28;20943;-67
2022/08/14 02:58:22;;;;;;;59.80;4.17;;;;;;;;;;5073220;28;20475;-67
2022/08/14 03:00:50;;;;;;;60.47;5.57;;;;;;;;;;5072274;28;20471;-67
2022/08/14 03:03:22;;;;;;;60.00;4.30;;;;;;;;;;5072372;28;20444;-67
2022/08/14 03:05:50;;;;;;;59.70;4.80;;;;;;;;;;5072301;28;20513;-67
2022/08/14 03:08:17;;;;;;;63.63;4.70;;;;;;;;;;5072137;28;20451;-67
2022/08/14 03:10:44;;;;;;;59.47;4.40;;;;;;;;;;5071872;28;20505;-67
2022/08/14 03:13:11;;;;;;;60.73;5.00;;;;;;;;;;5072014;28;20540;-67
2022/08/14 03:15:39;;;;;;;61.70;4.93;;;;;;;;;;5072059;28;20447;-67
2022/08/14 03:18:10;;;;;;;60.10;4.27;;;;;;;;;;5071826;28;20455;-67
2022/08/14 03:20:38;;;;;;;60.60;4.73;;;;;;;;;;5072311;28;20451;-67
2022/08/14 03:23:05;;;;;;;60.57;4.63;;;;;;;;;;5072830;28;20482;-67
2022/08/14 03:25:33;;;;;;;60.80;4.50;;;;;;;;;;5073046;28;20454;-68
2022/08/14 03:28:02;;;;;;;60.50;4.43;;;;;;;;;;5072693;28;20451;-67
2022/08/14 03:30:30;;;;;;;60.23;5.20;;;;;;;;;;5071755;28;20580;-67
2022/08/14 03:32:58;;;;;;;59.80;4.73;;;;;;;;;;5071868;28;20482;-67
2022/08/14 03:35:25;;;;;;;59.27;3.80;;;;;;;;;;5071942;28;20864;-67
2022/08/14 03:37:54;;;;;;;60.70;5.27;;;;;;;;;;5071861;28;20470;-67
2022/08/14 03:40:23;;;;;;;61.70;4.70;;;;;;;;;;5071459;28;20443;-67
2022/08/14 03:42:51;;;;;;;60.80;5.17;;;;;;;;;;5071494;28;20467;-67
2022/08/14 03:45:18;;;;;;;60.63;4.60;;;;;;;;;;5071433;28;20447;-67
2022/08/14 03:47:45;;;;;;;60.50;4.77;;;;;;;;;;5071555;28;20931;-67
2022/08/14 03:50:12;;;;;;;61.10;4.50;;;;;;;;;;5071722;28;20447;-67
2022/08/14 03:52:40;;;;;;;60.93;4.63;;;;;;;;;;5072016;28;20479;-67
2022/08/14 03:55:11;;;;;;;59.50;4.03;;;;;;;;;;5072626;28;20448;-67
2022/08/14 03:57:38;;;;;;;59.60;4.80;;;;;;;;;;5072210;28;20864;-67
2022/08/14 04:00:09;;;;;;;61.50;4.83;;;;;;;;;;5071123;28;20966;-67
2022/08/14 04:02:37;;;;;;;60.13;4.80;;;;;;;;;;5071187;28;21044;-67
2022/08/14 04:05:04;;;;;;;59.60;4.07;;;;;;;;;;5071358;28;20443;-67
2022/08/14 04:07:32;;;;;;;60.47;5.53;;;;;;;;;;5071190;28;20469;-67
2022/08/14 04:09:59;;;;;;;60.70;4.77;;;;;;;;;;5070822;28;20537;-67
2022/08/14 04:12:27;;;;;;;59.73;4.20;;;;;;;;;;5071072;28;20467;-67
2022/08/14 04:14:55;;;;;;;60.07;4.63;;;;;;;;;;5071282;28;20490;-67
2022/08/14 04:17:22;;;;;;;60.03;4.37;;;;;;;;;;5070896;28;20448;-67
2022/08/14 04:19:50;;;;;;;60.00;4.60;;;;;;;;;;5070967;28;20453;-67
2022/08/14 04:22:20;;;;;;;59.27;4.00;;;;;;;;;;5071758;28;20815;-67
2022/08/14 04:24:47;;;;;;;59.80;4.30;;;;;;;;;;5071835;28;20458;-67
2022/08/14 04:27:15;;;;;;;60.37;4.63;;;;;;;;;;5072054;28;20888;-67
2022/08/14 04:29:44;;;;;;;60.10;4.00;;;;;;;;;;5071453;28;20505;-67
2022/08/14 04:32:11;;;;;;;60.23;4.27;;;;;;;;;;5070861;28;20477;-67
2022/08/14 04:34:40;;;;;;;60.50;4.70;;;;;;;;;;5070851;28;20493;-67
2022/08/14 04:45:25;;;;;;;69.77;5.27;;;;;;;;;;5070964;28;20800;-67
2022/08/14 04:50:38;;;;;;;60.47;4.70;;;;;;;;;;5070925;28;20514;-67
2022/08/14 04:53:05;;;;;;;61.77;4.33;;;;;;;;;;5071370;28;20470;-67
2022/08/14 04:55:33;;;;;;;59.90;4.57;;;;;;;;;;5071568;28;20939;-67
2022/08/14 04:58:00;;;;;;;61.47;4.77;;;;;;;;;;5071508;28;20447;-67
2022/08/14 05:00:29;;;;;;;59.80;4.20;;;;;;;;;;5070767;28;20443;-67
2022/08/14 05:02:56;;;;;;;60.17;4.50;;;;;;;;;;5070804;28;20473;-67
2022/08/14 05:05:23;;;;;;;60.00;4.30;;;;;;;;;;5070731;28;20497;-67
2022/08/14 05:07:51;;;;;;;59.50;4.50;;;;;;;;;;5070664;28;21004;-67
2022/08/14 05:10:24;;;;;;;63.50;4.97;;;;;;;;;;5070524;28;20931;-67
2022/08/14 05:12:52;;;;;;;59.97;4.73;;;;;;;;;;5072100;28;20474;-67
2022/08/14 05:15:20;;;;;;;60.00;4.60;;;;;;;;;;5074826;28;20783;-67
2022/08/14 05:17:49;;;;;;;59.50;4.40;;;;;;;;;;5074678;28;20855;-67
2022/08/14 05:20:16;;;;;;;59.17;3.97;;;;;;;;;;5074187;28;20831;-67
2022/08/14 05:22:44;;;;;;;59.40;4.30;;;;;;;;;;5075067;28;20838;-67
2022/08/14 05:25:12;;;;;;;60.97;5.37;;;;;;;;;;5075213;28;20487;-67
2022/08/14 05:27:39;;;;;;;59.77;4.30;;;;;;;;;;5074931;28;20509;-67
2022/08/14 05:30:07;;;;;;;60.07;5.20;;;;;;;;;;5074455;28;20451;-67
2022/08/14 05:32:34;;;;;;;60.50;4.33;;;;;;;;;;5074327;28;20466;-67
2022/08/14 05:35:02;;;;;;;61.07;4.77;;;;;;;;;;5074543;28;20625;-67
2022/08/14 05:37:30;;;;;;;60.30;4.83;;;;;;;;;;5074712;28;20451;-67
2022/08/14 05:39:58;;;;;;;59.57;4.40;;;;;;;;;;5074029;28;20808;-67
2022/08/14 05:42:26;;;;;;;59.63;4.47;;;;;;;;;;5074662;28;20831;-67
2022/08/14 05:44:53;;;;;;;59.23;4.20;;;;;;;;;;5074317;28;20501;-67
2022/08/14 05:47:20;;;;;;;59.17;3.80;;;;;;;;;;5074465;28;20447;-67
2022/08/14 05:49:47;;;;;;;59.50;4.50;;;;;;;;;;5074300;28;20531;-67
2022/08/14 05:52:16;;;;;;;58.70;3.43;;;;;;;;;;5074438;28;20485;-67
2022/08/14 05:54:43;;;;;;;58.97;3.60;;;;;;;;;;5074253;28;20482;-67
2022/08/14 05:57:10;;;;;;;60.07;4.97;;;;;;;;;;5074753;28;20448;-67
2022/08/14 05:59:37;;;;;;;59.10;4.23;;;;;;;;;;5074330;28;20454;-67
2022/08/14 06:02:04;;;;;;;60.70;4.73;;;;;;;;;;5074384;28;20474;-67
2022/08/14 06:04:31;;;;;;;60.00;4.00;;;;;;;;;;5074115;28;20448;-67
2022/08/14 06:06:58;;;;;;;59.27;3.73;;;;;;;;;;5074332;28;20451;-67
2022/08/14 06:09:27;;;;;;;59.77;4.20;;;;;;;;;;5073960;28;20447;-67
2022/08/14 06:11:54;;;;;;;59.40;3.80;;;;;;;;;;5074390;28;20464;-67
2022/08/14 06:14:22;;;;;;;59.60;4.20;;;;;;;;;;5074061;28;20506;-67
2022/08/14 06:16:49;;;;;;;58.80;4.33;;;;;;;;;;5074067;28;20448;-67
2022/08/14 06:19:17;;;;;;;59.67;4.33;;;;;;;;;;5073811;28;20447;-67
2022/08/14 06:21:44;;;;;;;59.40;3.83;;;;;;;;;;5073771;28;20967;-67
2022/08/14 06:24:11;;;;;;;59.07;3.87;;;;;;;;;;5074141;28;20484;-67
2022/08/14 06:26:39;;;;;;;60.10;4.37;;;;;;;;;;5074080;28;20466;-67
2022/08/14 06:29:07;;;;;;;59.43;4.67;;;;;;;;;;5073663;28;20546;-67
2022/08/14 06:31:34;;;;;;;59.10;3.63;;;;;;;;;;5073921;28;20463;-65
2022/08/14 06:34:01;;;;;;;59.57;4.40;;;;;;;;;;5073665;28;20861;-65
2022/08/14 06:36:29;;;;;;;60.00;4.47;;;;;;;;;;5073747;28;20455;-67
2022/08/14 06:38:56;;;;;;;60.37;3.87;;;;;;;;;;5073643;28;20447;-65
2022/08/14 06:41:23;;;;;;;59.37;3.50;;;;;;;;;;5073746;28;20463;-65
2022/08/14 06:43:52;;;;;;;60.07;4.63;;;;;;;;;;5073617;28;20924;-65
2022/08/14 06:46:19;;;;;;;59.47;3.57;;;;;;;;;;5073627;28;20951;-65
2022/08/14 06:48:46;;;;;;;58.97;3.67;;;;;;;;;;5073055;28;20444;-66
2022/08/14 06:51:13;;;;;;;59.00;4.03;;;;;;;;;;5073537;28;20831;-66
2022/08/14 06:53:40;;;;;;;59.70;4.30;;;;;;;;;;5073494;28;20454;-65
2022/08/14 06:56:07;;;;;;;59.37;3.70;;;;;;;;;;5073518;28;20474;-66
2022/08/14 06:58:34;;;;;;;59.77;4.30;;;;;;;;;;5073348;28;20452;-65
2022/08/14 07:06:38;;;;;;;59.57;3.80;;;;;;;;;;5073695;28;20415;-66
2022/08/14 07:09:05;;;;;;;62.50;4.20;;;;;;;;;;5072815;28;20447;-66
2022/08/14 07:11:32;;;;;;;59.40;4.07;;;;;;;;;;5073003;28;20467;-66
2022/08/14 07:13:59;;;;;;;59.30;3.87;;;;;;;;;;5073177;28;20484;-66
2022/08/14 07:16:28;;;;;;;58.93;4.20;;;;;;;;;;5073126;28;20444;-66
2022/08/14 07:18:55;;;;;;;59.70;4.03;;;;;;;;;;5072836;28;20443;-67
2022/08/14 07:21:22;;;;;;;59.17;4.10;;;;;;;;;;5072858;28;20498;-67
2022/08/14 07:23:49;;;;;;;59.30;4.13;;;;;;;;;;5072821;28;20452;-67
2022/08/14 07:26:16;;;;;;;59.27;3.80;;;;;;;;;;5072708;28;20444;-67
2022/08/14 07:28:43;;;;;;;59.17;4.07;;;;;;;;;;5072699;28;20447;-67
2022/08/14 07:31:12;;;;;;;60.50;3.90;;;;;;;;;;5072812;28;20463;-67
2022/08/14 07:33:41;;;;;;;61.33;3.50;;;;;;;;;;5072811;28;20444;-67
2022/08/14 07:36:09;;;;;;;59.60;4.47;;;;;;;;;;5072123;28;20446;-67
2022/08/14 07:38:39;;;;;;;59.17;3.93;;;;;;;;;;5072314;28;20443;-67
2022/08/14 07:41:07;;;;;;;59.20;3.60;;;;;;;;;;5072882;28;20500;-67
2022/08/14 07:43:35;;;;;;;59.70;3.80;;;;;;;;;;5072703;28;20449;-67
2022/08/14 07:46:03;;;;;;;58.83;3.23;;;;;;;;;;5072560;28;20445;-67
2022/08/14 07:48:30;;;;;;;59.20;3.60;;;;;;;;;;5072190;28;20441;-66
2022/08/14 07:50:59;;;;;;;59.23;3.80;;;;;;;;;;5072165;28;20461;-67
2022/08/14 07:53:26;;;;;;;58.40;3.57;;;;;;;;;;5072254;28;20544;-67
2022/08/14 07:55:53;;;;;;;58.70;3.57;;;;;;;;;;5072308;28;20483;-67
2022/08/14 07:58:20;;;;;;;59.10;3.87;;;;;;;;;;5072246;28;20446;-67
2022/08/14 08:00:47;;;;;;;59.80;3.00;;;;;;;;;;5071925;28;20453;-67
2022/08/14 08:03:15;;;;;;;59.20;3.40;;;;;;;;;;5072196;28;20793;-67
2022/08/14 08:05:42;;;;;;;59.37;3.70;;;;;;;;;;5072076;28;20449;-67
2022/08/14 08:08:11;;;;;;;59.17;3.57;;;;;;;;;;5072211;28;20817;-67
2022/08/14 08:10:40;;;;;;;58.70;3.20;;;;;;;;;;5071746;28;20966;-67
2022/08/14 08:13:08;;;;;;;58.90;3.73;;;;;;;;;;5072015;28;20865;-67
2022/08/14 08:15:36;;;;;;;58.70;3.33;;;;;;;;;;5071963;28;20494;-67
2022/08/14 08:18:04;;;;;;;59.87;4.00;;;;;;;;;;5071835;28;20973;-67
2022/08/14 08:20:32;;;;;;;58.80;3.27;;;;;;;;;;5071944;28;20553;-67
2022/08/14 08:22:59;;;;;;;58.57;3.27;;;;;;;;;;5071922;28;20458;-67
2022/08/14 08:25:29;;;;;;;59.30;3.47;;;;;;;;;;5071876;28;20449;-67
2022/08/14 08:28:01;;;;;;;59.47;3.60;;;;;;;;;;5071935;28;20532;-67
2022/08/14 08:30:28;;;;;;;58.70;3.70;;;;;;;;;;5071662;28;20989;-67
2022/08/14 08:32:56;;;;;;;58.63;3.50;;;;;;;;;;5071700;28;20563;-67
2022/08/14 08:35:25;;;;;;;59.30;4.20;;;;;;;;;;5071964;28;20522;-67
2022/08/14 08:37:53;;;;;;;60.63;3.50;;;;;;;;;;5071872;28;20540;-67
2022/08/14 08:40:24;;;;;;;58.80;3.30;;;;;;;;;;5071465;28;20443;-67
2022/08/14 08:42:52;;;;;;;58.37;3.00;;;;;;;;;;5071700;28;20471;-67
2022/08/14 08:45:20;;;;;;;58.67;3.40;;;;;;;;;;5071613;28;20447;-67
2022/08/14 08:47:48;;;;;;;59.13;3.13;;;;;;;;;;5073442;28;20443;-67
2022/08/14 08:50:19;;;;;;;58.60;3.10;;;;;;;;;;5075648;28;20860;-67
2022/08/14 08:52:54;;;;;;;58.70;3.33;;;;;;;;;;5075717;28;20489;-67
2022/08/14 08:55:28;;;;;;;58.87;3.30;;;;;;;;;;5075723;28;20857;-67
2022/08/14 08:57:58;;;;;;;59.10;3.50;;;;;;;;;;5075518;28;20449;-67
2022/08/14 09:00:25;;;;;;;58.80;2.93;;;;;;;;;;5075592;28;20459;-67
2022/08/14 09:02:56;;;;;;;59.70;3.50;;;;;;;;;;5075451;28;20469;-67
2022/08/14 09:05:23;;;;;;;58.33;2.87;;;;;;;;;;5075451;28;20966;-67
2022/08/14 09:07:51;;;;;;;58.70;3.33;;;;;;;;;;5075554;28;20447;-67
2022/08/14 09:10:18;;;;;;;59.13;3.20;;;;;;;;;;5075101;28;20451;-67
2022/08/14 09:12:45;;;;;;;58.73;2.97;;;;;;;;;;5075494;28;20467;-67
2022/08/14 09:15:14;;;;;;;58.40;2.90;;;;;;;;;;5075417;28;20495;-67
2022/08/14 09:17:42;;;;;;;58.77;3.60;;;;;;;;;;5075391;28;20447;-67
2022/08/14 09:20:10;;;;;;;59.57;3.77;;;;;;;;;;5074952;28;20509;-68
2022/08/14 09:22:38;;;;;;;58.40;2.80;;;;;;;;;;5075552;28;20467;-67
2022/08/14 09:25:06;;;;;;;58.03;2.60;;;;;;;;;;5075171;28;20451;-67
2022/08/14 09:27:33;;;;;;;58.80;3.10;;;;;;;;;;5075116;28;20939;-67
2022/08/14 09:30:00;;;;;;;58.73;3.43;;;;;;;;;;5074917;28;20449;-67
2022/08/14 09:32:33;;;;;;;58.00;2.80;;;;;;;;;;5075211;28;20811;-67
2022/08/14 09:35:06;;;;;;;60.87;3.00;;;;;;;;;;5074839;28;20479;-67
2022/08/14 09:37:38;;;;;;;59.37;3.43;;;;;;;;;;5074789;28;20447;-67
2022/08/14 09:40:08;;;;;;;58.10;3.20;;;;;;;;;;5074834;28;20456;-67
2022/08/14 09:42:40;;;;;;;59.03;3.17;;;;;;;;;;5074988;28;20478;-67
2022/08/14 09:45:15;;;;;;;58.20;2.90;;;;;;;;;;5074903;28;20454;-67
2022/08/14 09:47:47;;;;;;;58.33;3.00;;;;;;;;;;5074655;28;20447;-67
2022/08/14 09:50:21;;;;;;;58.10;2.83;;;;;;;;;;5074664;28;20822;-67
2022/08/14 09:52:51;;;;;;;58.33;3.13;;;;;;;;;;5074579;28;20677;-68
2022/08/14 09:55:18;;;;;;;58.80;3.53;;;;;;;;;;5074586;28;20483;-68
2022/08/14 09:57:46;;;;;;;57.77;2.63;;;;;;;;;;5074329;28;20473;-68
2022/08/14 10:00:15;;;;;;;59.07;3.13;;;;;;;;;;5074066;28;20648;-67
2022/08/14 10:02:53;;;;;;;58.03;2.97;;;;;;;;;;5074328;28;20467;-68
2022/08/14 10:05:29;;;;;;;58.20;3.00;;;;;;;;;;5074651;28;20443;-68
2022/08/14 10:07:56;;;;;;;57.97;2.60;;;;;;;;;;5074851;28;20446;-68
2022/08/14 10:10:33;;;;;;;58.57;3.23;;;;;;;;;;5074021;28;20467;-68
2022/08/14 10:13:01;;;;;;;58.20;3.10;;;;;;;;;;5074204;28;20461;-68
2022/08/14 10:15:31;;;;;;;58.30;2.60;;;;;;;;;;5074336;28;20877;-68
2022/08/14 10:18:08;;;;;;;58.47;3.13;;;;;;;;;;5074024;28;20534;-68
2022/08/14 10:20:36;;;;;;;57.93;2.90;;;;;;;;;;5074002;28;20451;-68
2022/08/14 10:23:14;;;;;;;58.30;3.20;;;;;;;;;;5074063;28;20454;-68
2022/08/14 10:25:43;;;;;;;59.53;4.23;;;;;;;;;;5074255;28;20527;-68
2022/08/14 10:28:14;;;;;;;58.20;3.47;;;;;;;;;;5074208;28;20443;-68
2022/08/14 10:30:42;;;;;;;57.30;2.97;;;;;;;;;;5073769;28;20458;-67
2022/08/14 10:33:10;;;;;;;57.60;2.90;;;;;;;;;;5074026;28;20498;-67
2022/08/14 10:35:41;;;;;;;57.37;2.70;;;;;;;;;;5073765;28;20574;-68
2022/08/14 10:38:09;;;;;;;57.53;2.57;;;;;;;;;;5074025;28;20808;-68
2022/08/14 10:40:36;;;;;;;57.50;3.10;;;;;;;;;;5073661;28;20447;-68
2022/08/14 10:43:05;;;;;;;57.43;2.57;;;;;;;;;;5073818;28;20538;-68
2022/08/14 10:45:33;;;;;;;57.37;2.90;;;;;;;;;;5073847;28;20838;-68
2022/08/14 10:48:01;;;;;;;58.37;3.20;;;;;;;;;;5073717;28;20528;-68
2022/08/14 10:50:33;;;;;;;57.00;2.80;;;;;;;;;;5073228;28;20447;-68
2022/08/14 10:53:04;;;;;;;56.93;2.60;;;;;;;;;;5073463;28;20455;-68
2022/08/14 10:55:34;;;;;;;57.47;3.00;;;;;;;;;;5073546;28;20536;-68
2022/08/14 10:58:01;;;;;;;57.50;3.10;;;;;;;;;;5073286;28;21009;-67
2022/08/14 11:00:29;;;;;;;57.70;2.87;;;;;;;;;;5073130;28;20448;-67
2022/08/14 11:03:00;;;;;;;57.27;2.60;;;;;;;;;;5073372;28;20554;-68
2022/08/14 11:05:27;;;;;;;57.20;2.90;;;;;;;;;;5073544;28;20526;-68
2022/08/14 11:08:00;;;;;;;57.07;2.40;;;;;;;;;;5073549;28;20465;-67
2022/08/14 11:10:39;;;;;;;57.77;3.03;;;;;;;;;;5072504;28;20440;-67
2022/08/14 11:13:06;;;;;;;56.63;2.30;;;;;;;;;;5073004;28;20465;-68
2022/08/14 11:15:33;;;;;;;57.07;2.67;;;;;;;;;;5073302;28;20480;-68
2022/08/14 11:18:01;;;;;;;56.87;2.80;;;;;;;;;;5073083;28;20443;-68
2022/08/14 11:20:29;;;;;;;57.23;2.80;;;;;;;;;;5072599;28;21049;-68
2022/08/14 11:22:56;;;;;;;57.20;2.83;;;;;;;;;;5072851;28;20549;-68
2022/08/14 11:25:28;;;;;;;57.03;2.80;;;;;;;;;;5072886;28;20543;-68
2022/08/14 11:27:56;;;;;;;57.07;2.70;;;;;;;;;;5072642;28;20454;-68
2022/08/14 11:30:25;;;;;;;57.10;3.10;;;;;;;;;;5072725;28;20462;-68
2022/08/14 11:32:53;;;;;;;56.70;2.80;;;;;;;;;;5072867;28;20555;-68
2022/08/14 11:35:21;;;;;;;57.30;2.97;;;;;;;;;;5072771;28;20479;-68
2022/08/14 11:37:52;;;;;;;57.50;2.97;;;;;;;;;;5072686;28;20454;-68
2022/08/14 11:40:19;;;;;;;57.30;3.17;;;;;;;;;;5072210;28;20530;-66
2022/08/14 11:42:48;;;;;;;57.20;3.00;;;;;;;;;;5072363;28;20463;-66
2022/08/14 11:45:16;;;;;;;56.80;2.60;;;;;;;;;;5072427;28;20530;-66
2022/08/14 11:47:44;;;;;;;57.17;2.80;;;;;;;;;;5072541;28;20534;-68
2022/08/14 11:50:18;;;;;;;57.00;2.77;;;;;;;;;;5072048;28;20451;-68
2022/08/14 11:52:46;;;;;;;57.00;2.70;;;;;;;;;;5072113;28;20494;-68
2022/08/14 11:55:14;;;;;;;56.87;3.00;;;;;;;;;;5072229;28;20542;-68
2022/08/14 11:57:42;;;;;;;56.60;2.50;;;;;;;;;;5072454;28;20551;-68
2022/08/14 12:00:14;;;;;;;56.80;2.80;;;;;;;;;;5072118;28;20873;-68
2022/08/14 12:02:50;;;;;;;56.90;2.73;;;;;;;;;;5072197;28;20486;-67
2022/08/14 12:05:29;;;;;;;57.03;2.50;;;;;;;;;;5072126;28;20443;-66
2022/08/14 12:07:56;;;;;;;56.50;2.60;;;;;;;;;;5071977;28;20487;-66
2022/08/14 12:10:24;;;;;;;56.87;2.57;;;;;;;;;;5072027;28;20451;-67
2022/08/14 12:12:55;;;;;;;57.10;2.90;;;;;;;;;;5072245;28;20467;-67
2022/08/14 12:15:34;;;;;;;56.63;2.50;;;;;;;;;;5072034;28;20479;-66
2022/08/14 12:18:02;;;;;;;57.03;3.30;;;;;;;;;;5071931;28;20461;-66
2022/08/14 12:20:30;;;;;;;57.07;2.70;;;;;;;;;;5071888;28;20443;-66
2022/08/14 12:22:59;;;;;;;57.00;2.67;;;;;;;;;;5071847;28;20567;-66
2022/08/14 12:25:26;;;;;;;57.73;3.27;;;;;;;;;;5071874;28;20816;-66
2022/08/14 12:27:54;;;;;;;57.30;2.83;;;;;;;;;;5071870;28;20451;-66
2022/08/14 12:30:29;;;;;;;57.77;3.50;;;;;;;;;;5071549;28;20843;-68
2022/08/14 12:32:57;;;;;;;56.50;2.50;;;;;;;;;;5071858;28;20498;-66
2022/08/14 12:35:24;;;;;;;56.90;2.80;;;;;;;;;;5071825;28;20878;-66
2022/08/14 12:37:52;;;;;;;56.67;2.90;;;;;;;;;;5071775;28;20449;-66
2022/08/14 12:40:23;;;;;;;57.10;3.03;;;;;;;;;;5071505;28;20443;-66
2022/08/14 12:42:53;;;;;;;57.10;3.00;;;;;;;;;;5071770;28;20467;-66
2022/08/14 12:45:30;;;;;;;56.47;2.63;;;;;;;;;;5071974;28;20471;-66
2022/08/14 12:48:01;;;;;;;57.57;3.53;;;;;;;;;;5071774;28;20454;-66
2022/08/14 12:50:35;;;;;;;57.10;2.87;;;;;;;;;;5071466;28;20442;-66
2022/08/14 12:53:02;;;;;;;57.27;2.70;;;;;;;;;;5071566;28;20970;-66
2022/08/14 12:55:34;;;;;;;57.10;2.90;;;;;;;;;;5071432;28;20443;-66
2022/08/14 12:58:04;;;;;;;56.57;2.60;;;;;;;;;;5071642;28;20479;-66
2022/08/14 13:00:31;;;;;;;56.60;2.77;;;;;;;;;;5071474;28;20447;-66
2022/08/14 13:02:58;;;;;;;56.90;2.80;;;;;;;;;;5071426;28;20467;-66
2022/08/14 13:05:28;;;;;;;56.60;2.63;;;;;;;;;;5071440;28;20454;-66
2022/08/14 13:07:56;;;;;;;56.57;2.50;;;;;;;;;;5071435;28;20455;-66
2022/08/14 13:10:24;;;;;;;56.70;2.70;;;;;;;;;;5071414;28;20447;-66
2022/08/14 13:12:52;;;;;;;57.40;2.63;;;;;;;;;;5071337;28;20481;-66
2022/08/14 13:15:20;;;;;;;56.90;2.83;;;;;;;;;;5071467;28;20473;-66
2022/08/14 13:17:47;;;;;;;56.83;2.87;;;;;;;;;;5071351;28;20489;-66
2022/08/14 13:20:16;;;;;;;56.73;2.60;;;;;;;;;;5070983;28;20447;-66
2022/08/14 13:22:45;;;;;;;56.70;2.90;;;;;;;;;;5071255;28;20482;-66
2022/08/14 13:25:13;;;;;;;57.00;2.60;;;;;;;;;;5071478;28;20443;-66
2022/08/14 13:27:40;;;;;;;56.90;2.77;;;;;;;;;;5071719;28;20447;-66
2022/08/14 13:30:09;;;;;;;56.83;3.03;;;;;;;;;;5070969;28;20447;-66
2022/08/14 13:32:39;;;;;;;58.77;3.20;;;;;;;;;;5071519;28;20548;-66
2022/08/14 13:35:07;;;;;;;57.07;3.00;;;;;;;;;;5074866;28;20494;-66
2022/08/14 13:37:34;;;;;;;56.80;2.50;;;;;;;;;;5074813;28;20487;-66
2022/08/14 13:40:03;;;;;;;56.97;2.70;;;;;;;;;;5074465;28;20447;-66
2022/08/14 13:42:31;;;;;;;56.70;2.70;;;;;;;;;;5074713;28;20963;-66
2022/08/14 13:44:59;;;;;;;56.40;2.77;;;;;;;;;;5074882;28;20446;-66
2022/08/14 13:47:28;;;;;;;56.70;2.87;;;;;;;;;;5074562;28;20497;-66
2022/08/14 13:49:55;;;;;;;57.03;2.80;;;;;;;;;;5074289;28;20480;-66
2022/08/14 13:52:23;;;;;;;57.27;2.90;;;;;;;;;;5074489;28;20475;-66
2022/08/14 13:54:51;;;;;;;57.00;2.90;;;;;;;;;;5074719;28;20556;-66
2022/08/14 13:57:20;;;;;;;56.57;2.67;;;;;;;;;;5074546;28;20811;-67
2022/08/14 13:59:49;;;;;;;56.70;2.53;;;;;;;;;;5074061;28;20516;-67
2022/08/14 14:02:17;;;;;;;57.23;3.07;;;;;;;;;;5074356;28;20473;-67
2022/08/14 14:04:46;;;;;;;57.07;2.80;;;;;;;;;;5074771;28;20447;-67
2022/08/14 14:07:15;;;;;;;57.13;3.27;;;;;;;;;;5074323;28;20486;-67
2022/08/14 14:09:43;;;;;;;56.60;2.83;;;;;;;;;;5074061;28;20572;-67
2022/08/14 14:12:11;;;;;;;56.87;2.80;;;;;;;;;;5074244;28;20467;-67
2022/08/14 14:14:41;;;;;;;57.13;2.60;;;;;;;;;;5074249;28;20697;-67
2022/08/14 14:17:10;;;;;;;56.87;2.90;;;;;;;;;;5074311;28;20439;-67
2022/08/14 14:19:40;;;;;;;57.00;2.80;;;;;;;;;;5073902;28;20451;-67
2022/08/14 14:22:07;;;;;;;57.30;3.10;;;;;;;;;;5074163;28;20467;-67
2022/08/14 14:24:35;;;;;;;56.50;2.50;;;;;;;;;;5074107;28;20532;-67
2022/08/14 14:27:03;;;;;;;56.50;2.53;;;;;;;;;;5073876;28;20832;-67
2022/08/14 14:29:31;;;;;;;56.70;2.50;;;;;;;;;;5073621;28;20448;-67
2022/08/14 14:32:00;;;;;;;56.60;2.50;;;;;;;;;;5074055;28;20467;-67
2022/08/14 14:34:29;;;;;;;56.80;2.73;;;;;;;;;;5074027;28;20451;-67
2022/08/14 14:37:03;;;;;;;56.70;2.50;;;;;;;;;;5073954;28;20879;-67
2022/08/14 14:39:31;;;;;;;57.00;2.80;;;;;;;;;;5073435;28;20444;-67
2022/08/14 14:41:59;;;;;;;56.90;2.67;;;;;;;;;;5073646;28;20994;-67
2022/08/14 14:44:30;;;;;;;56.73;2.60;;;;;;;;;;5073180;28;20835;-67
2022/08/14 14:46:59;;;;;;;56.93;2.57;;;;;;;;;;5073181;28;20475;-67
2022/08/14 14:49:28;;;;;;;57.60;2.57;;;;;;;;;;5073284;28;20451;-67
2022/08/14 14:51:55;;;;;;;57.13;2.87;;;;;;;;;;5073341;28;20508;-67
2022/08/14 14:54:23;;;;;;;56.57;2.60;;;;;;;;;;5073400;28;20451;-67
2022/08/14 14:56:51;;;;;;;56.20;2.23;;;;;;;;;;5073428;28;20483;-67
2022/08/14 14:59:18;;;;;;;56.37;2.67;;;;;;;;;;5073262;28;20455;-67